Time;durP1;ratioP1;P1;durP2;ratioP2;P2;SDS_P1;SDS_P2;PMS_P1;PMS_P2;Temp;Humidity;BMP_temperature;BMP_pressure;BME280_temperature;BME280_humidity;BME280_pressure;Samples;Min_cycle;Max_cycle;Signal;HPM_P1;HPM_P2
2023/06/11 00:02:24;;;;;;;2.97;2.88;;;;;;;;;;4977647;28;20203;-66
2023/06/11 00:04:51;;;;;;;3.45;3.35;;;;;;;;;;4977883;28;20242;-66
2023/06/11 00:07:18;;;;;;;2.83;2.72;;;;;;;;;;4977882;28;20211;-66
2023/06/11 00:09:45;;;;;;;2.78;2.67;;;;;;;;;;4977779;28;20290;-66
2023/06/11 00:12:12;;;;;;;3.17;3.08;;;;;;;;;;5001454;23;20227;-65
2023/06/11 00:14:39;;;;;;;3.03;2.92;;;;;;;;;;4977857;28;20301;-65
2023/06/11 00:17:08;;;;;;;2.55;2.55;;;;;;;;;;4977739;28;20203;-65
2023/06/11 00:19:35;;;;;;;2.90;2.80;;;;;;;;;;4977760;28;20227;-66
2023/06/11 00:22:05;;;;;;;3.00;2.88;;;;;;;;;;4977656;28;20585;-65
2023/06/11 00:24:32;;;;;;;2.47;2.38;;;;;;;;;;4977288;28;20610;-66
2023/06/11 00:27:01;;;;;;;3.10;3.00;;;;;;;;;;4977485;28;20694;-66
2023/06/11 00:29:28;;;;;;;3.53;3.42;;;;;;;;;;4977667;28;20242;-66
2023/06/11 00:31:55;;;;;;;2.70;2.60;;;;;;;;;;4977245;28;20690;-67
2023/06/11 00:34:24;;;;;;;2.85;2.75;;;;;;;;;;4977852;28;20207;-68
2023/06/11 00:36:52;;;;;;;2.97;2.88;;;;;;;;;;4977417;28;20257;-65
2023/06/11 00:39:19;;;;;;;3.05;2.95;;;;;;;;;;4977519;28;20223;-66
2023/06/11 00:41:48;;;;;;;2.80;2.70;;;;;;;;;;4977297;28;20630;-66
2023/06/11 00:44:17;;;;;;;2.83;2.72;;;;;;;;;;4977315;28;20231;-66
2023/06/11 00:46:44;;;;;;;2.78;2.58;;;;;;;;;;4977224;28;20207;-66
2023/06/11 00:49:12;;;;;;;2.40;2.35;;;;;;;;;;4976456;28;20199;-66
2023/06/11 00:51:42;;;;;;;2.88;2.80;;;;;;;;;;4977027;28;20619;-65
2023/06/11 00:54:12;;;;;;;2.85;2.75;;;;;;;;;;4977074;28;20215;-65
2023/06/11 00:56:41;;;;;;;2.80;2.70;;;;;;;;;;4977051;28;20216;-65
2023/06/11 06:18:18;;;;;;;2.97;2.83;;;;;;;;;;5575568;23;20260;-68
2023/06/11 06:20:46;;;;;;;2.90;2.60;;;;;;;;;;4975371;28;20222;-67
2023/06/11 06:23:13;;;;;;;2.55;2.45;;;;;;;;;;4975470;28;20203;-67
2023/06/11 06:25:41;;;;;;;2.50;2.40;;;;;;;;;;4975266;28;20203;-66
2023/06/11 06:28:08;;;;;;;2.80;2.60;;;;;;;;;;4975249;28;20230;-67
2023/06/11 06:30:35;;;;;;;2.13;2.03;;;;;;;;;;4975625;28;20210;-68
2023/06/11 06:33:02;;;;;;;2.53;2.42;;;;;;;;;;4975077;28;20531;-70
2023/06/11 06:35:32;;;;;;;3.22;3.03;;;;;;;;;;4975356;28;20214;-70
2023/06/11 06:38:00;;;;;;;2.92;2.83;;;;;;;;;;4975270;28;20253;-69
2023/06/11 06:40:27;;;;;;;2.38;2.38;;;;;;;;;;4975152;28;20233;-69
2023/06/11 06:42:54;;;;;;;2.35;2.25;;;;;;;;;;4975080;28;20207;-69
2023/06/11 06:45:21;;;;;;;2.42;2.33;;;;;;;;;;4974881;28;20206;-69
2023/06/11 06:47:48;;;;;;;2.50;2.40;;;;;;;;;;4974747;28;20591;-68
2023/06/11 06:50:15;;;;;;;2.65;2.55;;;;;;;;;;4975063;28;20194;-68
2023/06/11 06:52:44;;;;;;;2.53;2.42;;;;;;;;;;4974976;28;20261;-69
2023/06/11 06:55:11;;;;;;;3.13;2.40;;;;;;;;;;4974948;28;20207;-69
2023/06/11 06:57:38;;;;;;;2.67;2.58;;;;;;;;;;4975108;28;20223;-69
2023/06/11 07:00:07;;;;;;;2.38;2.30;;;;;;;;;;4974798;28;20716;-69
2023/06/11 07:02:34;;;;;;;2.92;2.83;;;;;;;;;;4976070;28;20207;-69
2023/06/11 07:05:01;;;;;;;2.05;2.05;;;;;;;;;;4975096;28;20207;-69
2023/06/11 07:07:28;;;;;;;2.75;2.20;;;;;;;;;;4975073;28;20207;-69
2023/06/11 07:09:56;;;;;;;2.22;2.13;;;;;;;;;;4974525;28;20697;-69
2023/06/11 07:12:23;;;;;;;2.25;2.05;;;;;;;;;;4974408;28;20206;-69
2023/06/11 07:14:50;;;;;;;1.80;1.70;;;23.10;55.60;;;;;;4974740;28;20198;-69
2023/06/11 07:17:18;;;;;;;2.30;2.20;;;35.90;40.80;;;;;;4974485;28;20678;-69
2023/06/11 07:19:44;;;;;;;1.73;1.73;;;36.30;39.20;;;;;;4974435;28;20258;-69
2023/06/11 07:22:11;;;;;;;2.65;2.42;;;35.60;40.50;;;;;;4974670;28;20194;-68
2023/06/11 07:24:39;;;;;;;2.10;2.00;;;34.70;41.70;;;;;;4974594;28;20202;-68
2023/06/11 07:27:07;;;;;;;2.30;2.28;;;34.70;42.30;;;;;;4974583;28;20294;-68
2023/06/11 07:29:34;;;;;;;4.90;2.00;;;34.20;42.30;;;;;;4974757;28;20223;-68
2023/06/11 07:32:01;;;;;;;2.35;2.30;;;34.20;41.90;;;;;;4974458;28;20269;-68
2023/06/11 07:34:28;;;;;;;2.10;2.03;;;33.70;41.90;;;;;;4974444;28;20198;-68
2023/06/11 07:36:54;;;;;;;2.20;2.10;;;33.50;43.00;;;;;;4974451;28;20214;-69
2023/06/11 07:39:21;;;;;;;2.63;2.53;;;33.10;42.80;;;;;;4974299;28;20230;-70
2023/06/11 07:41:48;;;;;;;1.98;1.90;;;32.30;43.40;;;;;;4974364;28;20290;-70
2023/06/11 07:44:16;;;;;;;1.83;1.73;;;32.10;43.50;;;;;;4974437;28;20242;-70
2023/06/11 07:46:45;;;;;;;1.92;1.83;;;31.90;44.00;;;;;;4974005;28;20586;-69
2023/06/11 07:49:12;;;;;;;1.70;1.70;;;32.20;44.90;;;;;;4974190;28;20316;-69
2023/06/11 07:51:40;;;;;;;1.80;1.70;;;32.90;43.00;;;;;;4974318;28;20198;-69
2023/06/11 07:54:07;;;;;;;1.58;1.50;;;32.80;43.10;;;;;;4974359;28;20203;-69
2023/06/11 07:56:34;;;;;;;1.67;1.67;;;32.70;42.30;;;;;;4974286;28;20250;-69
2023/06/11 07:59:01;;;;;;;2.13;2.03;;;32.70;43.40;;;;;;4977632;28;20249;-69
2023/06/11 08:01:29;;;;;;;2.03;1.92;;;32.00;42.90;;;;;;4978076;28;20209;-69
2023/06/11 08:03:55;;;;;;;1.83;1.83;;;31.10;43.20;;;;;;4977994;28;20569;-69
2023/06/11 08:06:22;;;;;;;1.85;1.75;;;29.80;45.80;;;;;;4977871;28;20206;-69
2023/06/11 08:08:50;;;;;;;1.92;1.92;;;29.40;47.40;;;;;;4977945;28;20218;-69
2023/06/11 08:11:17;;;;;;;1.60;1.60;;;28.50;48.40;;;;;;4977896;28;20199;-69
2023/06/11 08:13:44;;;;;;;2.00;1.90;;;27.30;49.90;;;;;;4977565;28;20665;-69
2023/06/11 08:16:10;;;;;;;3.22;2.28;;;26.60;52.90;;;;;;4977753;28;20214;-68
2023/06/11 08:18:38;;;;;;;2.10;2.00;;;25.80;56.50;;;;;;4977686;28;20371;-69
2023/06/11 08:21:05;;;;;;;2.15;2.15;;;25.30;59.30;;;;;;4977381;28;20219;-69
2023/06/11 08:23:34;;;;;;;1.77;1.70;;;24.90;65.00;;;;;;4977727;28;20205;-69
2023/06/11 08:26:02;;;;;;;2.80;2.70;;;;;;;;;;4977710;28;20222;-68
2023/06/11 08:28:29;;;;;;;2.20;2.20;;;;;;;;;;4977095;28;20314;-68
2023/06/11 08:30:57;;;;;;;2.95;2.15;;;;;;;;;;4977274;28;20203;-69
2023/06/11 08:33:24;;;;;;;2.42;2.33;;;;;;;;;;4977433;28;20206;-67
2023/06/11 08:35:52;;;;;;;2.92;2.83;;;;;;;;;;4977373;28;20210;-68
2023/06/11 08:38:19;;;;;;;2.63;2.58;;;;;;;;;;4977414;28;20229;-69
2023/06/11 08:40:47;;;;;;;2.85;2.72;;;;;;;;;;4976995;28;20613;-68
2023/06/11 08:43:14;;;;;;;3.30;3.15;;;;;;;;;;4977555;28;20253;-69
2023/06/11 08:45:41;;;;;;;3.08;2.88;;;;;;;;;;4977233;28;20254;-68
2023/06/11 08:48:10;;;;;;;3.13;3.03;;;;;;;;;;4977049;28;20277;-68
2023/06/11 08:50:37;;;;;;;3.80;3.65;;;;;;;;;;4977193;28;20226;-68
2023/06/11 08:53:06;;;;;;;3.50;3.30;;;;;;;;;;4977049;28;20203;-68
2023/06/11 08:55:33;;;;;;;3.50;3.30;;;;;;;;;;4976235;28;20685;-68
2023/06/11 08:58:01;;;;;;;3.50;3.38;;;;;;;;;;4976725;28;20222;-67
2023/06/11 09:00:28;;;;;;;3.50;3.30;;;;;;;;;;4976397;28;20219;-67
2023/06/11 09:02:56;;;;;;;3.10;3.00;;;;;;;;;;4976732;28;20203;-67
2023/06/11 09:05:23;;;;;;;4.00;3.80;;;;;;;;;;4976870;28;20210;-68
2023/06/11 09:07:50;;;;;;;5.55;3.60;;;;;;;;;;4976690;28;20594;-68
2023/06/11 09:10:19;;;;;;;4.30;3.40;;;;;;;;;;4976028;28;20194;-67
2023/06/11 09:12:46;;;;;;;3.28;3.08;;;;;;;;;;4976527;28;20306;-66
2023/06/11 09:15:15;;;;;;;3.55;3.20;;;;;;;;;;4976668;28;20575;-67
2023/06/11 09:17:43;;;;;;;3.90;3.70;;;;;;;;;;4976413;28;20226;-67
2023/06/11 09:20:11;;;;;;;3.88;3.70;;;;;;;;;;4976439;28;20242;-67
2023/06/11 09:22:38;;;;;;;3.88;3.60;;;;;;;;;;4976357;28;20685;-67
2023/06/11 09:25:08;;;;;;;3.53;3.33;;;;;;;;;;4976588;28;20195;-67
2023/06/11 09:27:37;;;;;;;3.70;3.50;;;;;;;;;;4976400;28;20260;-67
2023/06/11 09:30:07;;;;;;;4.00;3.70;;;;;;;;;;4976579;28;20222;-67
2023/06/11 11:32:24;;;;;;;3.42;3.22;;;;;;;;;;5707561;23;20245;-66
2023/06/11 11:34:51;;;;;;;3.53;3.33;;;;;;;;;;4978377;28;20222;-66
2023/06/11 11:37:18;;;;;;;3.67;3.47;;;;;;;;;;4978808;28;20206;-66
2023/06/11 11:39:46;;;;;;;2.75;2.55;;;;;;;;;;4978673;28;20219;-67
2023/06/11 11:42:13;;;;;;;3.50;3.30;;;;;;;;;;4978538;28;20226;-66
2023/06/11 11:44:41;;;;;;;3.08;2.88;;;;;;;;;;4979591;28;20211;-66
2023/06/11 11:47:09;;;;;;;3.40;3.10;;;;;;;;;;4978779;28;20207;-65
2023/06/11 11:49:37;;;;;;;2.95;2.85;;;;;;;;;;4979362;28;20282;-66
2023/06/11 11:52:05;;;;;;;2.63;2.53;;;;;;;;;;4980138;28;20234;-66
2023/06/11 11:54:32;;;;;;;2.88;2.67;;;;;;;;;;4981195;28;20199;-66
2023/06/11 11:57:02;;;;;;;4.35;3.00;;;;;;;;;;4980162;28;20593;-65
2023/06/11 11:59:31;;;;;;;2.83;2.72;;;;;;;;;;4978401;28;20190;-66
2023/06/11 12:02:00;;;;;;;3.08;2.88;;;;;;;;;;4979233;28;20238;-65
2023/06/11 12:04:34;;;;;;;3.47;3.30;;;;;;;;;;4980332;28;20210;-66
2023/06/11 12:07:06;;;;;;;2.95;2.85;;;;;;;;;;4978485;28;20223;-65
2023/06/11 12:09:33;;;;;;;3.30;2.92;;;;;;;;;;4987322;28;20206;-65
2023/06/11 12:12:00;;;;;;;3.05;2.90;;;;;;;;;;4988726;28;20226;-66
2023/06/11 12:14:28;;;;;;;3.38;3.17;;;;;;;;;;4987487;28;20217;-66
2023/06/11 12:16:57;;;;;;;3.30;3.17;;;;;;;;;;4986687;28;20206;-67
2023/06/11 12:19:25;;;;;;;2.05;2.05;;;;;;;;;;4988550;28;20203;-66
2023/06/11 12:21:55;;;;;;;3.00;2.90;;;;;;;;;;4986112;28;20254;-66
2023/06/11 12:24:24;;;;;;;4.72;2.75;;;;;;;;;;4985910;28;20190;-66
2023/06/11 12:26:52;;;;;;;4.75;2.50;;;;;;;;;;4984722;28;20559;-65
2023/06/11 12:29:20;;;;;;;2.97;2.88;;;;;;;;;;4983338;28;20577;-66
2023/06/11 12:31:47;;;;;;;2.85;2.80;;;;;;;;;;4982635;28;20223;-66
2023/06/11 12:34:15;;;;;;;2.92;2.83;;;;;;;;;;4979727;28;20222;-66
2023/06/11 12:36:43;;;;;;;2.55;2.35;;;;;;;;;;4981290;28;20183;-66
2023/06/11 12:39:10;;;;;;;2.70;2.60;;;;;;;;;;4981340;28;20263;-65
2023/06/11 12:41:40;;;;;;;3.05;2.95;;;;;;;;;;4981991;28;20632;-65
2023/06/11 12:44:07;;;;;;;2.80;2.60;;;;;;;;;;4979138;28;20202;-66
2023/06/11 12:46:36;;;;;;;3.25;3.15;;;;;;;;;;4982486;28;20187;-67
2023/06/11 12:49:03;;;;;;;3.20;3.10;;;;;;;;;;4981501;28;20207;-67
2023/06/11 12:51:31;;;;;;;2.65;2.55;;;;;;;;;;4980920;28;20605;-66
2023/06/11 12:53:58;;;;;;;3.05;2.75;;;;;;;;;;4980659;28;20718;-66
2023/06/11 12:56:27;;;;;;;2.90;2.80;;;;;;;;;;4982323;28;20210;-67
2023/06/11 12:58:55;;;;;;;2.50;2.40;;;;;;;;;;4981497;28;20242;-67
2023/06/11 13:01:30;;;;;;;2.50;2.40;;;;;;;;;;4981152;28;20270;-67
2023/06/11 13:03:58;;;;;;;2.65;2.55;;;;;;;;;;4982248;28;20631;-67
2023/06/11 13:06:28;;;;;;;2.78;2.58;;;;;;;;;;4982916;28;20202;-67
2023/06/11 13:08:55;;;;;;;2.70;2.60;;;;;;;;;;4981798;28;20199;-66
2023/06/11 13:11:23;;;;;;;3.22;2.92;;;;;;;;;;4980881;28;20733;-66
2023/06/11 13:13:52;;;;;;;2.47;2.38;;;;;;;;;;4981337;28;20206;-66
2023/06/11 13:16:20;;;;;;;3.33;2.40;;;;;;;;;;4980256;28;20202;-66
2023/06/11 13:18:47;;;;;;;2.30;2.20;;;;;;;;;;4977040;28;20214;-66
2023/06/11 13:21:15;;;;;;;2.53;2.42;;;;;;;;;;4978956;28;20231;-67
2023/06/11 13:23:43;;;;;;;2.10;2.10;;;;;;;;;;4977309;28;20203;-67
2023/06/11 13:26:10;;;;;;;2.53;2.42;;;;;;;;;;4980884;28;20241;-67
2023/06/11 13:28:39;;;;;;;3.03;2.50;;;;;;;;;;4978936;28;20238;-67
2023/06/11 13:31:06;;;;;;;2.38;2.28;;;;;;;;;;4980938;28;20207;-67
2023/06/11 13:33:35;;;;;;;2.45;2.35;;;;;;;;;;4981631;28;20712;-67
2023/06/11 13:36:02;;;;;;;2.70;2.50;;;;;;;;;;4980709;28;20217;-67
2023/06/11 13:38:29;;;;;;;2.95;2.75;;;;;;;;;;4980980;28;20202;-67
2023/06/11 13:40:57;;;;;;;3.08;2.88;;;;;;;;;;4981584;28;20219;-67
2023/06/11 13:43:25;;;;;;;2.83;2.63;;;;;;;;;;4981439;28;20237;-67
2023/06/11 13:45:53;;;;;;;2.50;2.40;;;;;;;;;;4980965;28;20206;-67
2023/06/11 13:48:21;;;;;;;2.70;2.60;;;;;;;;;;4981316;28;20636;-67
2023/06/11 13:50:51;;;;;;;3.05;2.83;;;;;;;;;;4980586;28;20198;-67
2023/06/11 13:53:19;;;;;;;2.60;2.40;;;;;;;;;;4980710;28;20690;-67
2023/06/11 13:55:47;;;;;;;2.72;2.63;;;;;;;;;;4980458;28;20242;-68
2023/06/11 13:58:15;;;;;;;2.42;2.22;;;;;;;;;;4980800;28;20222;-68
2023/06/11 14:00:42;;;;;;;2.53;2.40;;;;;;;;;;4980119;28;20227;-68
2023/06/11 14:03:10;;;;;;;3.30;2.53;;;;;;;;;;4980136;28;20569;-68
2023/06/11 14:05:38;;;;;;;2.95;2.75;;;;;;;;;;4981217;28;20207;-68
2023/06/11 14:08:07;;;;;;;2.10;2.00;;;;;;;;;;4980081;28;20209;-68
2023/06/11 14:10:34;;;;;;;2.75;2.65;;;;;;;;;;4979987;28;20601;-68
2023/06/11 14:13:01;;;;;;;2.50;2.40;;;;;;;;;;4975746;28;20234;-67
2023/06/11 14:15:28;;;;;;;2.50;2.40;;;;;;;;;;4975675;28;20209;-67
2023/06/11 14:17:55;;;;;;;2.60;2.50;;;;;;;;;;4975327;28;20210;-67
2023/06/11 14:20:22;;;;;;;2.60;2.50;;;;;;;;;;4975583;28;20270;-67
2023/06/11 14:22:50;;;;;;;2.58;2.47;;;;;;;;;;4975566;28;20230;-67
2023/06/11 14:25:18;;;;;;;2.63;2.42;;;;;;;;;;4975468;28;20253;-65
2023/06/11 14:27:45;;;;;;;2.60;2.50;;;;;;;;;;4975452;28;20247;-66
2023/06/11 14:30:13;;;;;;;2.28;2.17;;;;;;;;;;4975464;28;20579;-66
2023/06/11 14:32:40;;;;;;;2.00;1.90;;;;;;;;;;4975450;28;20231;-66
2023/06/11 14:35:07;;;;;;;2.30;2.10;;;;;;;;;;4975449;28;20211;-66
2023/06/11 14:37:35;;;;;;;2.17;2.17;;;;;;;;;;4975354;28;20575;-66
2023/06/11 14:40:02;;;;;;;2.60;2.50;;;;;;;;;;4974947;28;20685;-66
2023/06/11 14:42:30;;;;;;;2.17;2.08;;;;;;;;;;4975176;28;20254;-66
2023/06/11 14:45:00;;;;;;;3.92;2.80;;;;;;;;;;4975267;28;20318;-66
2023/06/11 14:47:27;;;;;;;2.67;2.33;;;;;;;;;;4975197;28;20207;-66
2023/06/11 14:49:54;;;;;;;4.28;2.60;;;;;;;;;;4975242;28;20199;-67
2023/06/11 14:52:22;;;;;;;2.92;2.67;;;;;;;;;;4974720;28;20718;-67
2023/06/11 14:54:49;;;;;;;2.70;2.60;;;;;;;;;;4974987;28;20203;-67
2023/06/11 14:57:16;;;;;;;2.70;2.60;;;;;;;;;;4974969;28;20203;-66
2023/06/11 14:59:45;;;;;;;2.40;2.30;;;;;;;;;;4975115;28;20210;-67
2023/06/11 15:02:13;;;;;;;2.75;2.55;;;;;;;;;;4974824;28;20313;-67
2023/06/11 15:04:41;;;;;;;2.92;2.70;;;;;;;;;;4974901;28;20211;-67
2023/06/11 15:07:08;;;;;;;2.50;2.40;;;;;;;;;;4974420;28;20211;-67
2023/06/11 15:09:36;;;;;;;2.25;2.05;;;;;;;;;;4975252;28;20203;-67
2023/06/11 15:12:03;;;;;;;2.60;2.40;;;;;;;;;;4975193;28;20219;-66
2023/06/11 15:14:30;;;;;;;4.25;2.33;;;;;;;;;;4974772;28;20217;-66
2023/06/11 15:16:59;;;;;;;2.47;2.38;;;;;;;;;;4974898;28;20210;-66
2023/06/11 15:19:26;;;;;;;3.63;2.75;;;;;;;;;;4974817;28;20191;-66
2023/06/11 15:21:54;;;;;;;2.88;2.78;;;;;;;;;;4974337;28;20231;-67
2023/06/11 15:24:21;;;;;;;2.58;2.47;;;;;;;;;;4974864;28;20210;-67
2023/06/11 15:26:48;;;;;;;2.63;2.40;;;;;;;;;;4974513;28;20673;-67
2023/06/11 15:29:15;;;;;;;2.35;2.25;;;;;;;;;;4974735;28;20206;-67
2023/06/11 15:31:43;;;;;;;2.65;2.55;;;;;;;;;;4974599;28;20225;-67
2023/06/11 15:34:11;;;;;;;2.30;2.20;;;;;;;;;;4974465;28;20233;-67
2023/06/11 15:36:38;;;;;;;2.80;2.60;;;;;;;;;;4974307;28;20554;-67
2023/06/11 15:39:05;;;;;;;2.55;2.35;;;;;;;;;;4974592;28;20199;-67
2023/06/11 15:41:32;;;;;;;2.22;2.13;;;;;;;;;;4974054;28;20699;-67
2023/06/11 15:44:00;;;;;;;2.20;2.05;;;;;;;;;;4974652;28;20207;-67
2023/06/11 15:46:27;;;;;;;5.63;3.00;;;;;;;;;;4974525;28;20234;-67
2023/06/11 15:48:54;;;;;;;5.65;2.30;;;;;;;;;;4974498;28;20214;-67
2023/06/11 15:51:22;;;;;;;2.30;2.13;;;;;;;;;;4974661;28;20203;-67
2023/06/11 15:53:50;;;;;;;2.30;2.17;;;;;;;;;;4974608;28;20210;-68
2023/06/11 15:56:17;;;;;;;2.70;2.50;;;;;;;;;;4974533;28;20282;-67
2023/06/11 15:58:44;;;;;;;2.08;1.98;;;;;;;;;;4974725;28;20217;-68
2023/06/11 16:01:12;;;;;;;2.63;2.53;;;;;;;;;;4974528;28;20219;-67
2023/06/11 16:03:40;;;;;;;2.55;2.35;;;;;;;;;;4974330;28;20281;-67
2023/06/11 16:06:07;;;;;;;2.55;2.40;;;;;;;;;;4975221;28;20281;-67
2023/06/11 16:08:35;;;;;;;2.10;2.10;;;;;;;;;;4974415;28;20558;-67
2023/06/11 16:11:02;;;;;;;2.40;2.30;;;;;;;;;;4974413;28;20207;-67
2023/06/11 16:13:29;;;;;;;2.63;2.53;;;;;;;;;;4974355;28;20223;-67
2023/06/11 16:15:57;;;;;;;2.60;2.50;;;;;;;;;;4974199;28;20206;-67
2023/06/11 16:18:24;;;;;;;2.63;2.38;;;;;;;;;;4975653;28;20206;-67
2023/06/11 16:20:53;;;;;;;2.40;2.17;;;;;;;;;;4977585;28;20574;-67
2023/06/11 16:23:20;;;;;;;2.80;2.60;;;;;;;;;;4977652;28;20273;-67
2023/06/11 16:25:49;;;;;;;2.28;2.17;;;;;;;;;;4977687;28;20262;-67
2023/06/11 16:28:16;;;;;;;2.38;2.22;;;;;;;;;;4977782;28;20206;-67
2023/06/11 16:30:43;;;;;;;2.85;2.65;;;;;;;;;;4977417;28;20636;-67
2023/06/11 16:33:10;;;;;;;2.60;2.50;;;;;;;;;;4977587;28;20222;-68
2023/06/11 16:35:37;;;;;;;2.65;2.45;;;;;;;;;;4977421;28;20265;-68
2023/06/11 16:38:04;;;;;;;3.00;2.90;;;;;;;;;;4977268;28;20602;-68
2023/06/11 16:40:31;;;;;;;2.22;2.10;;;;;;;;;;4977176;28;20335;-66
2023/06/11 16:43:00;;;;;;;2.50;2.40;;;;;;;;;;4977418;28;20238;-67
2023/06/11 16:45:29;;;;;;;2.42;2.20;;;;;;;;;;4977495;28;20191;-68
2023/06/11 16:47:56;;;;;;;2.40;2.30;;;;;;;;;;4977406;28;20261;-67
2023/06/11 16:50:23;;;;;;;3.20;1.92;;;;;;;;;;4977325;28;20210;-67
2023/06/11 16:52:51;;;;;;;2.33;2.13;;;;;;;;;;4977314;28;20214;-68
2023/06/11 16:55:20;;;;;;;2.40;2.30;;;;;;;;;;4977605;28;20199;-70
2023/06/11 16:57:47;;;;;;;2.30;2.20;;;;;;;;;;4977393;28;20207;-70
2023/06/11 17:00:17;;;;;;;2.40;2.30;;;;;;;;;;4977052;28;20203;-69
2023/06/11 17:02:44;;;;;;;2.53;2.42;;;;;;;;;;4976801;28;20694;-69
2023/06/11 17:05:12;;;;;;;4.38;2.70;;;;;;;;;;4977470;28;20199;-69
2023/06/11 17:07:43;;;;;;;2.90;2.40;;;;;;;;;;4977115;28;20198;-68
2023/06/11 17:10:11;;;;;;;2.50;2.40;;;;;;;;;;4977182;28;20183;-68
2023/06/11 17:12:40;;;;;;;2.67;2.47;;;;;;;;;;4978233;28;20230;-69
2023/06/11 17:15:08;;;;;;;2.70;2.60;;;;;;;;;;4978892;28;20199;-69
2023/06/11 17:17:37;;;;;;;1.80;1.80;;;;;;;;;;4977883;28;20203;-69
2023/06/11 17:20:04;;;;;;;2.60;2.50;;;;;;;;;;4979883;28;20206;-69
2023/06/11 17:22:31;;;;;;;2.38;2.30;;;24.70;66.20;;;;;;4977009;28;20226;-69
2023/06/11 17:24:58;;;;;;;2.30;2.20;;;23.10;46.60;;;;;;4976550;28;20202;-69
2023/06/11 17:27:24;;;;;;;2.30;2.20;;;23.00;46.50;;;;;;4976370;28;20218;-69
2023/06/11 17:29:51;;;;;;;2.60;2.40;;;23.00;46.70;;;;;;4976590;28;20189;-69
2023/06/11 17:32:18;;;;;;;2.30;2.15;;;23.00;46.80;;;;;;4976861;28;20219;-68
2023/06/11 17:34:47;;;;;;;2.42;2.33;;;23.10;46.90;;;;;;4976494;28;20214;-68
2023/06/11 17:37:13;;;;;;;2.22;2.13;;;23.00;47.50;;;;;;4977483;28;20237;-67
2023/06/11 17:39:40;;;;;;;3.17;2.50;;;23.00;47.90;;;;;;4976539;28;20207;-67
2023/06/11 17:42:07;;;;;;;2.67;2.47;;;22.90;48.20;;;;;;4976005;28;20236;-67
2023/06/11 17:44:34;;;;;;;6.75;4.30;;;22.90;48.30;;;;;;4976418;28;20203;-67
2023/06/11 17:47:01;;;;;;;2.65;2.30;;;22.80;48.20;;;;;;4976031;28;20741;-67
2023/06/11 17:49:27;;;;;;;3.03;2.72;;;22.80;48.20;;;;;;5000023;23;20230;-68
2023/06/11 17:51:55;;;;;;;2.47;2.30;;;22.80;48.40;;;;;;4976140;28;20206;-67
2023/06/11 17:54:22;;;;;;;2.30;2.25;;;22.80;48.60;;;;;;4976128;28;20665;-67
2023/06/11 17:56:49;;;;;;;2.65;2.28;;;22.70;48.40;;;;;;4976264;28;20230;-67
2023/06/11 17:59:16;;;;;;;3.15;2.85;;;22.70;48.90;;;;;;4976238;28;20227;-67
2023/06/11 18:01:43;;;;;;;2.70;2.60;;;22.70;48.90;;;;;;4976258;28;20223;-67
2023/06/11 18:04:10;;;;;;;2.42;2.33;;;22.70;49.20;;;;;;4976391;28;20629;-67
2023/06/11 18:06:38;;;;;;;2.38;2.17;;;22.60;49.20;;;;;;4976161;28;20234;-67
2023/06/11 18:09:06;;;;;;;2.50;2.40;;;22.50;49.20;;;;;;4976017;28;20277;-67
2023/06/11 18:11:34;;;;;;;2.60;2.40;;;22.40;49.10;;;;;;4975756;28;20275;-67
2023/06/11 18:14:01;;;;;;;2.20;2.10;;;22.40;49.10;;;;;;4975698;28;20749;-66
2023/06/11 18:16:28;;;;;;;2.03;1.92;;;22.30;49.00;;;;;;4975714;28;20577;-67
2023/06/11 18:18:55;;;;;;;2.50;2.30;;;22.30;49.00;;;;;;4975926;28;20222;-67
2023/06/11 18:21:21;;;;;;;2.58;2.47;;;22.20;48.90;;;;;;4975846;28;20237;-66
2023/06/11 18:23:48;;;;;;;2.60;2.40;;;22.20;48.90;;;;;;4975893;28;20202;-66
2023/06/11 18:26:16;;;;;;;2.75;2.55;;;22.20;49.30;;;;;;4975552;28;20207;-67
2023/06/11 18:28:43;;;;;;;2.55;2.35;;;22.10;49.40;;;;;;4975621;28;20222;-68
2023/06/11 18:31:10;;;;;;;2.40;2.30;;;22.10;49.60;;;;;;4975695;28;20214;-66
2023/06/11 18:33:37;;;;;;;3.22;2.72;;;22.00;49.60;;;;;;4975607;28;20206;-66
2023/06/11 18:36:04;;;;;;;2.08;1.98;;;22.00;49.60;;;;;;4975488;28;20253;-67
2023/06/11 18:38:31;;;;;;;2.45;2.35;;;21.90;49.70;;;;;;4976139;28;20198;-66
2023/06/11 18:40:58;;;;;;;1.98;1.98;;;21.90;49.90;;;;;;4975198;28;20210;-67
2023/06/11 18:43:26;;;;;;;2.42;2.22;;;21.80;50.10;;;;;;4974686;28;20227;-67
2023/06/11 18:45:52;;;;;;;3.33;2.17;;;21.80;50.40;;;;;;4975589;28;20233;-71
2023/06/11 18:48:19;;;;;;;3.88;2.53;;;21.70;50.00;;;;;;4974980;28;20203;-68
2023/06/11 18:50:46;;;;;;;2.63;2.50;;;21.70;50.00;;;;;;4975244;28;20265;-69
2023/06/11 18:53:13;;;;;;;4.50;2.45;;;21.60;49.80;;;;;;4975399;28;20206;-68
2023/06/11 18:55:39;;;;;;;2.63;2.42;;;21.50;50.20;;;;;;4975447;28;20199;-69
2023/06/11 18:58:06;;;;;;;2.22;2.13;;;21.50;50.10;;;;;;4975308;28;20206;-69
2023/06/11 19:00:35;;;;;;;2.45;2.25;;;21.40;50.00;;;;;;4975191;28;20231;-68
2023/06/11 19:03:02;;;;;;;2.47;2.17;;;21.30;50.10;;;;;;4974983;28;20331;-69
2023/06/11 19:05:29;;;;;;;2.15;2.05;;;21.20;50.10;;;;;;4975283;28;20203;-68
2023/06/11 19:07:56;;;;;;;2.38;2.28;;;21.20;50.10;;;;;;4975125;28;20675;-68
2023/06/11 19:10:23;;;;;;;2.13;2.03;;;21.10;50.30;;;;;;4975074;28;20253;-68
2023/06/11 19:12:50;;;;;;;1.98;1.88;;;21.10;50.40;;;;;;4975191;28;20231;-67
2023/06/11 19:15:17;;;;;;;1.88;1.77;;;20.90;50.20;;;;;;4976053;28;20536;-69
2023/06/11 19:17:45;;;;;;;2.33;2.13;;;20.90;50.80;;;;;;4974791;28;20693;-68
2023/06/11 19:20:12;;;;;;;2.40;2.30;;;20.80;50.80;;;;;;4974984;28;20223;-68
2023/06/11 19:22:39;;;;;;;2.22;2.13;;;20.70;50.90;;;;;;4975049;28;20218;-68
2023/06/11 19:25:06;;;;;;;2.25;2.15;;;20.60;51.00;;;;;;4974856;28;20245;-68
2023/06/11 19:27:33;;;;;;;2.42;2.33;;;20.60;51.30;;;;;;4975115;28;20283;-68
2023/06/11 19:30:00;;;;;;;2.10;2.00;;;20.50;51.80;;;;;;4975033;28;20252;-68
2023/06/11 19:32:26;;;;;;;2.28;2.17;;;20.40;52.20;;;;;;4974945;28;20341;-68
2023/06/11 19:34:54;;;;;;;1.83;1.83;;;20.20;53.80;;;;;;4974857;28;20203;-68
2023/06/11 19:37:21;;;;;;;2.15;2.08;;;20.00;56.40;;;;;;4974779;28;20248;-68
2023/06/11 19:39:48;;;;;;;2.20;2.10;;;19.80;58.30;;;;;;4974629;28;20714;-68
2023/06/11 19:42:14;;;;;;;1.80;1.80;;;19.60;61.30;;;;;;4974928;28;20219;-68
2023/06/11 19:44:42;;;;;;;1.92;1.90;;;19.30;63.10;;;;;;4975372;28;20203;-68
2023/06/11 19:47:08;;;;;;;1.70;1.70;;;19.10;66.80;;;;;;4974889;28;20206;-68
2023/06/11 19:49:35;;;;;;;1.92;1.83;;;18.90;69.90;;;;;;4974534;28;20230;-66
2023/06/11 19:52:03;;;;;;;1.45;1.45;;;18.70;72.30;;;;;;4974529;28;20670;-66
2023/06/11 19:54:30;;;;;;;1.67;1.67;;;18.50;75.50;;;;;;4977816;28;20250;-66
2023/06/11 19:56:56;;;;;;;2.00;1.90;;;18.30;77.80;;;;;;4978585;28;20211;-66
2023/06/11 19:59:23;;;;;;;1.42;1.42;;;18.10;80.80;;;;;;4978074;28;20741;-66
2023/06/11 20:01:50;;;;;;;1.55;1.55;;;17.90;83.70;;;;;;4978333;28;20211;-67
2023/06/11 20:04:16;;;;;;;1.40;1.40;;;17.80;86.80;;;;;;4978215;28;20234;-67
2023/06/11 20:06:43;;;;;;;1.95;1.85;;;17.70;89.10;;;;;;4977976;28;20199;-67
2023/06/11 20:09:11;;;;;;;2.00;1.90;;;17.50;90.70;;;;;;4977892;28;20728;-66
2023/06/11 20:11:38;;;;;;;1.67;1.55;;;17.40;91.60;;;;;;4978331;28;20203;-66
2023/06/11 20:14:04;;;;;;;1.77;1.77;;;17.30;92.60;;;;;;4978134;28;20195;-67
2023/06/11 20:16:31;;;;;;;2.20;2.10;;;17.20;93.90;;;;;;4977803;28;20686;-67
2023/06/11 20:18:58;;;;;;;1.65;1.65;;;17.10;95.50;;;;;;4977753;28;20706;-66
2023/06/11 20:21:25;;;;;;;2.00;2.00;;;17.00;97.20;;;;;;4977956;28;20574;-66
2023/06/11 20:23:51;;;;;;;1.80;1.70;;;16.90;98.80;;;;;;4977895;28;20242;-66
2023/06/11 20:26:19;;;;;;;1.60;1.60;;;16.80;99.90;;;;;;4978087;28;20211;-66
2023/06/11 20:28:46;;;;;;;1.77;1.77;;;16.70;99.90;;;;;;4977696;28;20223;-66
2023/06/11 20:31:13;;;;;;;1.80;1.80;;;16.60;99.90;;;;;;4977625;28;20570;-66
2023/06/11 20:33:39;;;;;;;1.67;1.67;;;16.50;99.90;;;;;;4977823;28;20199;-66
2023/06/11 20:36:06;;;;;;;1.60;1.60;;;16.40;99.90;;;;;;4977770;28;20211;-67
2023/06/11 20:38:33;;;;;;;1.80;1.80;;;16.40;99.90;;;;;;4977802;28;20235;-67
2023/06/11 20:41:00;;;;;;;2.20;2.10;;;16.30;99.90;;;;;;4977737;28;20207;-67
2023/06/11 20:43:28;;;;;;;2.03;1.92;;;16.20;99.90;;;;;;4977697;28;20223;-67
2023/06/11 20:45:54;;;;;;;1.60;1.60;;;16.10;99.90;;;;;;4977740;28;20289;-67
2023/06/11 20:48:21;;;;;;;1.77;1.77;;;16.00;99.90;;;;;;4977461;28;20203;-67
2023/06/11 20:50:48;;;;;;;1.83;1.73;;;15.90;99.90;;;;;;4977512;28;20191;-67
2023/06/11 20:53:15;;;;;;;1.98;1.98;;;15.80;99.90;;;;;;4977257;28;20671;-66
2023/06/11 20:55:41;;;;;;;1.95;1.95;;;15.70;99.90;;;;;;4977330;28;20671;-66
2023/06/11 20:58:08;;;;;;;1.60;1.60;;;15.70;99.90;;;;;;4977353;28;20207;-66
2023/06/11 21:00:36;;;;;;;1.90;1.80;;;15.60;99.90;;;;;;4977241;28;20330;-66
2023/06/11 21:03:03;;;;;;;1.70;1.70;;;15.60;99.90;;;;;;4977150;28;20236;-67
2023/06/11 21:05:30;;;;;;;2.20;2.10;;;15.50;99.90;;;;;;4976451;28;20199;-65
2023/06/11 21:07:57;;;;;;;1.90;1.80;;;15.40;99.90;;;;;;4977112;28;20211;-67
2023/06/11 21:10:24;;;;;;;1.63;1.63;;;15.40;99.90;;;;;;4976967;28;20223;-66
2023/06/11 21:12:50;;;;;;;1.77;1.73;;;15.30;99.90;;;;;;4976763;28;20566;-66
2023/06/11 21:15:18;;;;;;;2.10;2.00;;;15.20;99.90;;;;;;4977286;28;20230;-66
2023/06/11 21:17:46;;;;;;;1.58;1.58;;;15.20;99.90;;;;;;4976891;28;20690;-66